sensor_id;sensor_type;location;lat;lon;timestamp;P1;durP1;ratioP1;P2;durP2;ratioP2
78824;SDS011;68176;45.554;10.220;2024-02-16T00:01:42;10.57;;;5.97;;
78824;SDS011;68176;45.554;10.220;2024-02-16T00:04:13;9.75;;;6.05;;
78824;SDS011;68176;45.554;10.220;2024-02-16T00:06:42;9.68;;;7.18;;
78824;SDS011;68176;45.554;10.220;2024-02-16T00:09:13;8.70;;;5.85;;
78824;SDS011;68176;45.554;10.220;2024-02-16T00:11:42;7.55;;;5.80;;
78824;SDS011;68176;45.554;10.220;2024-02-16T00:14:13;9.82;;;6.40;;
78824;SDS011;68176;45.554;10.220;2024-02-16T00:16:43;9.07;;;6.13;;
78824;SDS011;68176;45.554;10.220;2024-02-16T00:19:13;10.07;;;6.15;;
78824;SDS011;68176;45.554;10.220;2024-02-16T00:21:43;10.02;;;6.63;;
78824;SDS011;68176;45.554;10.220;2024-02-16T00:24:13;8.57;;;6.60;;
78824;SDS011;68176;45.554;10.220;2024-02-16T00:26:43;7.57;;;5.63;;
78824;SDS011;68176;45.554;10.220;2024-02-16T00:29:13;10.13;;;6.20;;
78824;SDS011;68176;45.554;10.220;2024-02-16T00:31:43;8.80;;;5.93;;
78824;SDS011;68176;45.554;10.220;2024-02-16T00:34:13;11.43;;;7.10;;
78824;SDS011;68176;45.554;10.220;2024-02-16T00:36:43;8.27;;;6.18;;
78824;SDS011;68176;45.554;10.220;2024-02-16T00:39:13;8.38;;;6.25;;
78824;SDS011;68176;45.554;10.220;2024-02-16T00:41:43;9.55;;;6.57;;
78824;SDS011;68176;45.554;10.220;2024-02-16T00:44:13;8.60;;;6.03;;
78824;SDS011;68176;45.554;10.220;2024-02-16T00:49:13;8.00;;;5.90;;
78824;SDS011;68176;45.554;10.220;2024-02-16T00:51:43;8.05;;;5.88;;
78824;SDS011;68176;45.554;10.220;2024-02-16T00:56:43;10.07;;;6.38;;
78824;SDS011;68176;45.554;10.220;2024-02-16T00:59:13;11.00;;;6.45;;
78824;SDS011;68176;45.554;10.220;2024-02-16T01:04:13;9.15;;;6.32;;
78824;SDS011;68176;45.554;10.220;2024-02-16T01:06:43;8.95;;;6.53;;
78824;SDS011;68176;45.554;10.220;2024-02-16T01:09:13;10.32;;;6.10;;
78824;SDS011;68176;45.554;10.220;2024-02-16T01:11:43;10.27;;;6.63;;
78824;SDS011;68176;45.554;10.220;2024-02-16T01:16:43;8.45;;;6.22;;
78824;SDS011;68176;45.554;10.220;2024-02-16T01:19:13;9.20;;;6.57;;
78824;SDS011;68176;45.554;10.220;2024-02-16T01:21:43;8.82;;;5.80;;
78824;SDS011;68176;45.554;10.220;2024-02-16T01:24:14;7.28;;;6.22;;
78824;SDS011;68176;45.554;10.220;2024-02-16T01:26:43;9.68;;;6.60;;
78824;SDS011;68176;45.554;10.220;2024-02-16T01:29:13;9.25;;;6.03;;
78824;SDS011;68176;45.554;10.220;2024-02-16T01:34:14;9.02;;;5.88;;
78824;SDS011;68176;45.554;10.220;2024-02-16T01:36:43;10.07;;;6.13;;
78824;SDS011;68176;45.554;10.220;2024-02-16T01:39:13;10.85;;;6.68;;
78824;SDS011;68176;45.554;10.220;2024-02-16T01:41:43;10.10;;;5.60;;
78824;SDS011;68176;45.554;10.220;2024-02-16T01:44:13;8.88;;;6.18;;
78824;SDS011;68176;45.554;10.220;2024-02-16T01:46:43;9.48;;;4.70;;
78824;SDS011;68176;45.554;10.220;2024-02-16T01:49:13;9.88;;;7.43;;
78824;SDS011;68176;45.554;10.220;2024-02-16T01:51:43;10.00;;;7.55;;
78824;SDS011;68176;45.554;10.220;2024-02-16T01:54:13;8.25;;;5.63;;
78824;SDS011;68176;45.554;10.220;2024-02-16T01:56:44;8.98;;;6.00;;
78824;SDS011;68176;45.554;10.220;2024-02-16T01:59:13;8.50;;;6.25;;
78824;SDS011;68176;45.554;10.220;2024-02-16T02:01:43;7.57;;;5.60;;
78824;SDS011;68176;45.554;10.220;2024-02-16T02:04:13;8.10;;;6.13;;
78824;SDS011;68176;45.554;10.220;2024-02-16T02:06:43;7.93;;;5.68;;
78824;SDS011;68176;45.554;10.220;2024-02-16T02:09:13;10.18;;;6.97;;
78824;SDS011;68176;45.554;10.220;2024-02-16T02:11:43;9.60;;;6.00;;
78824;SDS011;68176;45.554;10.220;2024-02-16T02:14:13;10.48;;;7.60;;
78824;SDS011;68176;45.554;10.220;2024-02-16T02:16:43;8.38;;;5.65;;
78824;SDS011;68176;45.554;10.220;2024-02-16T02:19:13;8.48;;;6.13;;
78824;SDS011;68176;45.554;10.220;2024-02-16T02:21:43;11.60;;;7.13;;
78824;SDS011;68176;45.554;10.220;2024-02-16T02:26:43;9.80;;;6.55;;
78824;SDS011;68176;45.554;10.220;2024-02-16T02:29:13;9.23;;;6.43;;
78824;SDS011;68176;45.554;10.220;2024-02-16T02:31:43;9.00;;;6.05;;
78824;SDS011;68176;45.554;10.220;2024-02-16T02:36:43;8.88;;;5.70;;
78824;SDS011;68176;45.554;10.220;2024-02-16T02:41:43;9.45;;;6.03;;
78824;SDS011;68176;45.554;10.220;2024-02-16T02:44:13;7.20;;;5.68;;
78824;SDS011;68176;45.554;10.220;2024-02-16T02:46:43;8.60;;;5.80;;
78824;SDS011;68176;45.554;10.220;2024-02-16T02:49:13;10.30;;;6.28;;
78824;SDS011;68176;45.554;10.220;2024-02-16T02:54:13;9.85;;;6.05;;
78824;SDS011;68176;45.554;10.220;2024-02-16T02:56:43;9.50;;;6.25;;
78824;SDS011;68176;45.554;10.220;2024-02-16T02:59:14;9.30;;;5.85;;
78824;SDS011;68176;45.554;10.220;2024-02-16T03:01:43;10.57;;;7.00;;
78824;SDS011;68176;45.554;10.220;2024-02-16T03:04:13;7.50;;;5.35;;
78824;SDS011;68176;45.554;10.220;2024-02-16T03:06:43;9.45;;;6.43;;
78824;SDS011;68176;45.554;10.220;2024-02-16T03:11:44;10.50;;;6.22;;
78824;SDS011;68176;45.554;10.220;2024-02-16T03:14:13;8.98;;;5.88;;
78824;SDS011;68176;45.554;10.220;2024-02-16T03:16:44;7.95;;;6.13;;
78824;SDS011;68176;45.554;10.220;2024-02-16T03:19:14;8.43;;;6.00;;
78824;SDS011;68176;45.554;10.220;2024-02-16T03:21:43;10.20;;;6.32;;
78824;SDS011;68176;45.554;10.220;2024-02-16T03:24:14;8.98;;;6.35;;
78824;SDS011;68176;45.554;10.220;2024-02-16T03:26:43;9.98;;;6.18;;
78824;SDS011;68176;45.554;10.220;2024-02-16T03:29:14;7.85;;;5.65;;
78824;SDS011;68176;45.554;10.220;2024-02-16T03:31:43;8.73;;;6.70;;
78824;SDS011;68176;45.554;10.220;2024-02-16T03:34:13;9.60;;;6.90;;
78824;SDS011;68176;45.554;10.220;2024-02-16T03:36:43;9.43;;;6.28;;
78824;SDS011;68176;45.554;10.220;2024-02-16T03:39:13;10.02;;;6.03;;
78824;SDS011;68176;45.554;10.220;2024-02-16T03:41:44;7.47;;;5.63;;
78824;SDS011;68176;45.554;10.220;2024-02-16T03:44:14;12.35;;;5.45;;
78824;SDS011;68176;45.554;10.220;2024-02-16T03:46:43;7.55;;;5.85;;
78824;SDS011;68176;45.554;10.220;2024-02-16T03:49:14;8.68;;;5.95;;
78824;SDS011;68176;45.554;10.220;2024-02-16T03:54:14;9.77;;;6.03;;
78824;SDS011;68176;45.554;10.220;2024-02-16T03:56:44;9.40;;;5.35;;
78824;SDS011;68176;45.554;10.220;2024-02-16T03:59:14;7.78;;;5.40;;
78824;SDS011;68176;45.554;10.220;2024-02-16T04:01:44;9.13;;;6.13;;
78824;SDS011;68176;45.554;10.220;2024-02-16T04:04:14;14.13;;;6.78;;
78824;SDS011;68176;45.554;10.220;2024-02-16T04:06:44;8.07;;;5.07;;
78824;SDS011;68176;45.554;10.220;2024-02-16T04:09:14;9.32;;;6.63;;
78824;SDS011;68176;45.554;10.220;2024-02-16T04:11:45;7.88;;;5.65;;
78824;SDS011;68176;45.554;10.220;2024-02-16T04:14:14;8.00;;;5.78;;
78824;SDS011;68176;45.554;10.220;2024-02-16T04:16:44;8.00;;;5.45;;
78824;SDS011;68176;45.554;10.220;2024-02-16T04:19:14;10.27;;;7.03;;
78824;SDS011;68176;45.554;10.220;2024-02-16T04:21:44;10.80;;;6.70;;
78824;SDS011;68176;45.554;10.220;2024-02-16T04:26:44;8.85;;;5.22;;
78824;SDS011;68176;45.554;10.220;2024-02-16T04:31:44;10.93;;;5.82;;
78824;SDS011;68176;45.554;10.220;2024-02-16T04:34:15;7.72;;;4.63;;
78824;SDS011;68176;45.554;10.220;2024-02-16T04:36:44;8.35;;;5.75;;
78824;SDS011;68176;45.554;10.220;2024-02-16T04:39:14;8.88;;;6.15;;
78824;SDS011;68176;45.554;10.220;2024-02-16T04:41:44;9.82;;;6.35;;
78824;SDS011;68176;45.554;10.220;2024-02-16T04:44:14;9.65;;;5.78;;
78824;SDS011;68176;45.554;10.220;2024-02-16T04:49:14;9.18;;;5.80;;
78824;SDS011;68176;45.554;10.220;2024-02-16T04:51:44;9.05;;;6.03;;
78824;SDS011;68176;45.554;10.220;2024-02-16T04:54:14;8.98;;;6.13;;
78824;SDS011;68176;45.554;10.220;2024-02-16T04:56:44;10.07;;;6.38;;
78824;SDS011;68176;45.554;10.220;2024-02-16T04:59:14;7.90;;;5.90;;
78824;SDS011;68176;45.554;10.220;2024-02-16T05:01:44;8.57;;;5.72;;
78824;SDS011;68176;45.554;10.220;2024-02-16T05:04:14;7.90;;;5.65;;
78824;SDS011;68176;45.554;10.220;2024-02-16T05:06:44;7.40;;;5.43;;
78824;SDS011;68176;45.554;10.220;2024-02-16T05:09:14;6.88;;;5.63;;
78824;SDS011;68176;45.554;10.220;2024-02-16T05:11:44;9.13;;;6.40;;
78824;SDS011;68176;45.554;10.220;2024-02-16T05:14:14;7.13;;;5.55;;
78824;SDS011;68176;45.554;10.220;2024-02-16T05:16:44;9.00;;;5.95;;
78824;SDS011;68176;45.554;10.220;2024-02-16T05:21:44;38.72;;;26.08;;
78824;SDS011;68176;45.554;10.220;2024-02-16T05:24:14;44.67;;;28.67;;
78824;SDS011;68176;45.554;10.220;2024-02-16T05:29:14;45.20;;;25.10;;
78824;SDS011;68176;45.554;10.220;2024-02-16T05:31:44;39.90;;;24.60;;
78824;SDS011;68176;45.554;10.220;2024-02-16T05:34:16;41.30;;;24.25;;
78824;SDS011;68176;45.554;10.220;2024-02-16T05:36:44;38.58;;;25.30;;
78824;SDS011;68176;45.554;10.220;2024-02-16T05:41:51;38.60;;;23.52;;
78824;SDS011;68176;45.554;10.220;2024-02-16T05:44:17;34.50;;;16.25;;
78824;SDS011;68176;45.554;10.220;2024-02-16T05:46:45;33.83;;;23.02;;
78824;SDS011;68176;45.554;10.220;2024-02-16T05:49:15;34.97;;;22.08;;
78824;SDS011;68176;45.554;10.220;2024-02-16T05:51:45;37.83;;;24.48;;
78824;SDS011;68176;45.554;10.220;2024-02-16T05:54:30;30.73;;;20.37;;
78824;SDS011;68176;45.554;10.220;2024-02-16T05:56:56;28.45;;;18.30;;
78824;SDS011;68176;45.554;10.220;2024-02-16T05:59:24;34.45;;;22.10;;
78824;SDS011;68176;45.554;10.220;2024-02-16T06:01:54;33.78;;;21.70;;
78824;SDS011;68176;45.554;10.220;2024-02-16T06:04:24;34.35;;;22.35;;
78824;SDS011;68176;45.554;10.220;2024-02-16T06:09:25;36.08;;;21.55;;
78824;SDS011;68176;45.554;10.220;2024-02-16T06:11:54;32.88;;;22.27;;
78824;SDS011;68176;45.554;10.220;2024-02-16T06:17:00;33.85;;;22.33;;
78824;SDS011;68176;45.554;10.220;2024-02-16T06:21:55;32.88;;;20.70;;
78824;SDS011;68176;45.554;10.220;2024-02-16T06:24:26;31.27;;;21.02;;
78824;SDS011;68176;45.554;10.220;2024-02-16T06:26:56;30.23;;;19.25;;
78824;SDS011;68176;45.554;10.220;2024-02-16T06:29:25;30.15;;;19.73;;
78824;SDS011;68176;45.554;10.220;2024-02-16T06:31:55;32.33;;;19.42;;
78824;SDS011;68176;45.554;10.220;2024-02-16T06:34:25;36.35;;;22.52;;
78824;SDS011;68176;45.554;10.220;2024-02-16T06:39:25;30.92;;;19.90;;
78824;SDS011;68176;45.554;10.220;2024-02-16T06:41:55;36.35;;;19.80;;
78824;SDS011;68176;45.554;10.220;2024-02-16T06:44:25;31.08;;;19.50;;
78824;SDS011;68176;45.554;10.220;2024-02-16T06:46:55;30.70;;;18.98;;
78824;SDS011;68176;45.554;10.220;2024-02-16T06:51:55;30.75;;;18.80;;
78824;SDS011;68176;45.554;10.220;2024-02-16T06:56:57;32.22;;;18.20;;
78824;SDS011;68176;45.554;10.220;2024-02-16T06:59:25;28.52;;;18.92;;
78824;SDS011;68176;45.554;10.220;2024-02-16T07:01:55;30.50;;;18.77;;
78824;SDS011;68176;45.554;10.220;2024-02-16T07:06:55;29.75;;;18.90;;
78824;SDS011;68176;45.554;10.220;2024-02-16T07:09:25;31.95;;;19.60;;
78824;SDS011;68176;45.554;10.220;2024-02-16T07:11:55;28.50;;;19.20;;
78824;SDS011;68176;45.554;10.220;2024-02-16T07:14:25;30.58;;;19.80;;
78824;SDS011;68176;45.554;10.220;2024-02-16T07:19:25;31.00;;;19.40;;
78824;SDS011;68176;45.554;10.220;2024-02-16T07:21:56;29.13;;;17.58;;
78824;SDS011;68176;45.554;10.220;2024-02-16T07:24:25;28.48;;;18.20;;
78824;SDS011;68176;45.554;10.220;2024-02-16T07:26:55;33.15;;;19.85;;
78824;SDS011;68176;45.554;10.220;2024-02-16T07:31:55;26.30;;;17.05;;
78824;SDS011;68176;45.554;10.220;2024-02-16T07:34:25;26.63;;;17.95;;
78824;SDS011;68176;45.554;10.220;2024-02-16T07:36:55;27.85;;;17.88;;
78824;SDS011;68176;45.554;10.220;2024-02-16T07:39:25;29.35;;;17.95;;
78824;SDS011;68176;45.554;10.220;2024-02-16T07:41:55;28.40;;;18.40;;
78824;SDS011;68176;45.554;10.220;2024-02-16T07:44:27;27.02;;;17.45;;
78824;SDS011;68176;45.554;10.220;2024-02-16T07:46:55;27.67;;;17.85;;
78824;SDS011;68176;45.554;10.220;2024-02-16T07:49:25;27.23;;;16.90;;
78824;SDS011;68176;45.554;10.220;2024-02-16T07:54:25;25.23;;;16.20;;
78824;SDS011;68176;45.554;10.220;2024-02-16T07:56:55;26.63;;;16.23;;
78824;SDS011;68176;45.554;10.220;2024-02-16T07:59:25;28.70;;;16.80;;
78824;SDS011;68176;45.554;10.220;2024-02-16T08:01:55;28.55;;;17.52;;
78824;SDS011;68176;45.554;10.220;2024-02-16T08:04:25;28.13;;;17.92;;
78824;SDS011;68176;45.554;10.220;2024-02-16T08:06:58;25.65;;;17.20;;
78824;SDS011;68176;45.554;10.220;2024-02-16T08:11:55;26.08;;;17.10;;
78824;SDS011;68176;45.554;10.220;2024-02-16T08:14:25;24.95;;;15.50;;
78824;SDS011;68176;45.554;10.220;2024-02-16T08:16:55;25.00;;;16.15;;
78824;SDS011;68176;45.554;10.220;2024-02-16T08:19:31;26.88;;;17.30;;
78824;SDS011;68176;45.554;10.220;2024-02-16T08:22:01;19.40;;;13.43;;
78824;SDS011;68176;45.554;10.220;2024-02-16T08:24:33;14.50;;;10.60;;
78824;SDS011;68176;45.554;10.220;2024-02-16T08:27:02;26.77;;;14.20;;
78824;SDS011;68176;45.554;10.220;2024-02-16T08:29:29;17.20;;;10.95;;
78824;SDS011;68176;45.554;10.220;2024-02-16T08:31:56;19.70;;;12.80;;
78824;SDS011;68176;45.554;10.220;2024-02-16T08:36:56;23.30;;;14.38;;
78824;SDS011;68176;45.554;10.220;2024-02-16T08:39:26;21.75;;;15.10;;
78824;SDS011;68176;45.554;10.220;2024-02-16T08:41:56;24.08;;;14.18;;
78824;SDS011;68176;45.554;10.220;2024-02-16T08:44:26;22.92;;;14.57;;
78824;SDS011;68176;45.554;10.220;2024-02-16T08:49:26;23.65;;;15.48;;
78824;SDS011;68176;45.554;10.220;2024-02-16T08:51:56;23.52;;;14.27;;
78824;SDS011;68176;45.554;10.220;2024-02-16T08:54:26;23.73;;;14.10;;
78824;SDS011;68176;45.554;10.220;2024-02-16T08:56:56;23.88;;;13.68;;
78824;SDS011;68176;45.554;10.220;2024-02-16T08:59:26;21.75;;;14.25;;
78824;SDS011;68176;45.554;10.220;2024-02-16T09:01:56;21.67;;;14.23;;
78824;SDS011;68176;45.554;10.220;2024-02-16T09:04:26;23.85;;;13.13;;
78824;SDS011;68176;45.554;10.220;2024-02-16T09:06:56;19.60;;;13.77;;
78824;SDS011;68176;45.554;10.220;2024-02-16T09:09:26;21.98;;;14.30;;
78824;SDS011;68176;45.554;10.220;2024-02-16T09:11:56;21.35;;;13.80;;
78824;SDS011;68176;45.554;10.220;2024-02-16T09:14:27;21.35;;;13.00;;
78824;SDS011;68176;45.554;10.220;2024-02-16T09:16:56;20.35;;;13.43;;
78824;SDS011;68176;45.554;10.220;2024-02-16T09:21:56;21.02;;;12.13;;
78824;SDS011;68176;45.554;10.220;2024-02-16T09:24:26;22.05;;;15.63;;
78824;SDS011;68176;45.554;10.220;2024-02-16T09:26:56;17.58;;;11.68;;
78824;SDS011;68176;45.554;10.220;2024-02-16T09:29:26;21.95;;;14.20;;
78824;SDS011;68176;45.554;10.220;2024-02-16T09:31:56;19.92;;;14.27;;
78824;SDS011;68176;45.554;10.220;2024-02-16T09:34:26;19.67;;;13.05;;
78824;SDS011;68176;45.554;10.220;2024-02-16T09:36:56;20.15;;;14.23;;
78824;SDS011;68176;45.554;10.220;2024-02-16T09:39:26;58.65;;;34.47;;
78824;SDS011;68176;45.554;10.220;2024-02-16T09:41:56;59.53;;;35.45;;
78824;SDS011;68176;45.554;10.220;2024-02-16T09:44:26;53.78;;;33.63;;
78824;SDS011;68176;45.554;10.220;2024-02-16T09:46:57;62.72;;;34.03;;
78824;SDS011;68176;45.554;10.220;2024-02-16T09:49:26;46.05;;;29.25;;
78824;SDS011;68176;45.554;10.220;2024-02-16T09:51:56;52.70;;;34.75;;
78824;SDS011;68176;45.554;10.220;2024-02-16T09:54:26;50.73;;;28.23;;
78824;SDS011;68176;45.554;10.220;2024-02-16T09:56:56;58.25;;;32.95;;
78824;SDS011;68176;45.554;10.220;2024-02-16T09:59:26;49.15;;;31.27;;
78824;SDS011;68176;45.554;10.220;2024-02-16T10:02:00;55.53;;;33.42;;
78824;SDS011;68176;45.554;10.220;2024-02-16T10:04:26;47.95;;;29.75;;
78824;SDS011;68176;45.554;10.220;2024-02-16T10:06:56;55.08;;;31.92;;
78824;SDS011;68176;45.554;10.220;2024-02-16T10:09:27;55.00;;;32.83;;
78824;SDS011;68176;45.554;10.220;2024-02-16T10:14:26;56.08;;;30.48;;
78824;SDS011;68176;45.554;10.220;2024-02-16T10:17:03;48.35;;;29.92;;
78824;SDS011;68176;45.554;10.220;2024-02-16T10:19:31;42.60;;;28.20;;
78824;SDS011;68176;45.554;10.220;2024-02-16T10:22:10;47.45;;;27.50;;
78824;SDS011;68176;45.554;10.220;2024-02-16T10:24:37;49.03;;;29.02;;
78824;SDS011;68176;45.554;10.220;2024-02-16T10:27:13;39.13;;;25.93;;
78824;SDS011;68176;45.554;10.220;2024-02-16T10:29:42;40.67;;;26.17;;
78824;SDS011;68176;45.554;10.220;2024-02-16T10:32:10;46.70;;;25.43;;
78824;SDS011;68176;45.554;10.220;2024-02-16T10:34:37;38.70;;;24.30;;
78824;SDS011;68176;45.554;10.220;2024-02-16T10:42:04;46.22;;;26.98;;
78824;SDS011;68176;45.554;10.220;2024-02-16T10:44:35;46.03;;;27.77;;
78824;SDS011;68176;45.554;10.220;2024-02-16T10:47:04;54.78;;;27.38;;
78824;SDS011;68176;45.554;10.220;2024-02-16T10:49:35;47.60;;;30.38;;
78824;SDS011;68176;45.554;10.220;2024-02-16T10:52:05;40.40;;;26.25;;
78824;SDS011;68176;45.554;10.220;2024-02-16T10:54:35;43.53;;;26.85;;
78824;SDS011;68176;45.554;10.220;2024-02-16T10:57:08;48.15;;;30.40;;
78824;SDS011;68176;45.554;10.220;2024-02-16T10:59:44;29.40;;;17.50;;
78824;SDS011;68176;45.554;10.220;2024-02-16T11:02:10;34.30;;;24.17;;
78824;SDS011;68176;45.554;10.220;2024-02-16T11:04:38;26.85;;;21.25;;
78824;SDS011;68176;45.554;10.220;2024-02-16T11:07:11;43.22;;;24.38;;
78824;SDS011;68176;45.554;10.220;2024-02-16T11:09:40;41.63;;;25.93;;
78824;SDS011;68176;45.554;10.220;2024-02-16T11:14:43;20.90;;;16.30;;
78824;SDS011;68176;45.554;10.220;2024-02-16T11:17:11;33.90;;;20.87;;
78824;SDS011;68176;45.554;10.220;2024-02-16T11:19:44;26.50;;;17.15;;
78824;SDS011;68176;45.554;10.220;2024-02-16T11:22:10;31.90;;;19.47;;
78824;SDS011;68176;45.554;10.220;2024-02-16T11:24:43;31.40;;;23.45;;
78824;SDS011;68176;45.554;10.220;2024-02-16T11:27:12;37.27;;;21.03;;
78824;SDS011;68176;45.554;10.220;2024-02-16T11:29:40;36.85;;;24.25;;
78824;SDS011;68176;45.554;10.220;2024-02-16T11:32:06;29.45;;;20.50;;
78824;SDS011;68176;45.554;10.220;2024-02-16T11:34:36;38.28;;;23.75;;
78824;SDS011;68176;45.554;10.220;2024-02-16T11:37:06;36.25;;;23.20;;
78824;SDS011;68176;45.554;10.220;2024-02-16T11:39:36;40.33;;;24.10;;
78824;SDS011;68176;45.554;10.220;2024-02-16T11:42:07;36.67;;;25.55;;
78824;SDS011;68176;45.554;10.220;2024-02-16T11:44:37;30.30;;;21.13;;
78824;SDS011;68176;45.554;10.220;2024-02-16T11:47:07;33.88;;;22.52;;
78824;SDS011;68176;45.554;10.220;2024-02-16T11:49:40;30.50;;;19.20;;
78824;SDS011;68176;45.554;10.220;2024-02-16T11:52:09;35.30;;;21.20;;
78824;SDS011;68176;45.554;10.220;2024-02-16T11:54:36;35.75;;;20.50;;
78824;SDS011;68176;45.554;10.220;2024-02-16T11:57:06;45.53;;;25.95;;
78824;SDS011;68176;45.554;10.220;2024-02-16T12:02:06;34.05;;;21.30;;
78824;SDS011;68176;45.554;10.220;2024-02-16T12:04:36;39.30;;;22.33;;
78824;SDS011;68176;45.554;10.220;2024-02-16T12:07:06;37.85;;;23.60;;
78824;SDS011;68176;45.554;10.220;2024-02-16T12:09:36;35.05;;;22.02;;
78824;SDS011;68176;45.554;10.220;2024-02-16T12:14:36;37.40;;;20.85;;
78824;SDS011;68176;45.554;10.220;2024-02-16T12:17:06;32.45;;;21.50;;
78824;SDS011;68176;45.554;10.220;2024-02-16T12:19:36;33.08;;;21.60;;
78824;SDS011;68176;45.554;10.220;2024-02-16T12:22:08;22.40;;;12.50;;
78824;SDS011;68176;45.554;10.220;2024-02-16T12:24:37;33.90;;;19.50;;
78824;SDS011;68176;45.554;10.220;2024-02-16T12:27:06;30.30;;;20.40;;
78824;SDS011;68176;45.554;10.220;2024-02-16T12:29:36;35.90;;;20.85;;
78824;SDS011;68176;45.554;10.220;2024-02-16T12:32:06;38.08;;;20.00;;
78824;SDS011;68176;45.554;10.220;2024-02-16T12:34:36;33.40;;;19.02;;
78824;SDS011;68176;45.554;10.220;2024-02-16T12:37:06;32.70;;;21.02;;
78824;SDS011;68176;45.554;10.220;2024-02-16T12:39:37;33.20;;;19.08;;
78824;SDS011;68176;45.554;10.220;2024-02-16T12:42:06;34.97;;;20.67;;
78824;SDS011;68176;45.554;10.220;2024-02-16T12:44:36;35.15;;;20.98;;
78824;SDS011;68176;45.554;10.220;2024-02-16T12:49:37;25.70;;;18.40;;
78824;SDS011;68176;45.554;10.220;2024-02-16T12:52:07;31.73;;;17.95;;
78824;SDS011;68176;45.554;10.220;2024-02-16T12:54:36;29.77;;;18.15;;
78824;SDS011;68176;45.554;10.220;2024-02-16T12:59:37;25.77;;;15.38;;
78824;SDS011;68176;45.554;10.220;2024-02-16T13:02:06;26.75;;;17.38;;
78824;SDS011;68176;45.554;10.220;2024-02-16T13:04:37;31.42;;;18.77;;
78824;SDS011;68176;45.554;10.220;2024-02-16T13:07:07;29.02;;;18.15;;
78824;SDS011;68176;45.554;10.220;2024-02-16T13:09:37;30.23;;;18.55;;
78824;SDS011;68176;45.554;10.220;2024-02-16T13:12:07;28.48;;;18.63;;
78824;SDS011;68176;45.554;10.220;2024-02-16T13:14:37;25.42;;;16.65;;
78824;SDS011;68176;45.554;10.220;2024-02-16T13:17:06;27.58;;;17.55;;
78824;SDS011;68176;45.554;10.220;2024-02-16T13:19:37;27.85;;;18.42;;
78824;SDS011;68176;45.554;10.220;2024-02-16T13:22:07;25.02;;;16.30;;
78824;SDS011;68176;45.554;10.220;2024-02-16T13:24:37;29.02;;;17.17;;
78824;SDS011;68176;45.554;10.220;2024-02-16T13:27:07;26.20;;;17.05;;
78824;SDS011;68176;45.554;10.220;2024-02-16T13:29:37;26.80;;;17.67;;
78824;SDS011;68176;45.554;10.220;2024-02-16T13:32:07;24.15;;;16.48;;
78824;SDS011;68176;45.554;10.220;2024-02-16T13:34:37;24.60;;;15.65;;
78824;SDS011;68176;45.554;10.220;2024-02-16T13:37:07;23.48;;;15.88;;
78824;SDS011;68176;45.554;10.220;2024-02-16T13:39:38;25.73;;;15.10;;
78824;SDS011;68176;45.554;10.220;2024-02-16T13:42:07;25.90;;;15.35;;
78824;SDS011;68176;45.554;10.220;2024-02-16T13:44:37;23.27;;;15.70;;
78824;SDS011;68176;45.554;10.220;2024-02-16T13:47:07;20.05;;;14.13;;
78824;SDS011;68176;45.554;10.220;2024-02-16T13:49:37;25.63;;;16.10;;
78824;SDS011;68176;45.554;10.220;2024-02-16T13:52:07;21.83;;;15.00;;
78824;SDS011;68176;45.554;10.220;2024-02-16T13:54:37;22.70;;;13.73;;
78824;SDS011;68176;45.554;10.220;2024-02-16T13:57:09;20.05;;;13.25;;
78824;SDS011;68176;45.554;10.220;2024-02-16T13:59:37;24.27;;;15.35;;
78824;SDS011;68176;45.554;10.220;2024-02-16T14:04:37;20.88;;;14.27;;
78824;SDS011;68176;45.554;10.220;2024-02-16T14:07:07;23.75;;;13.40;;
78824;SDS011;68176;45.554;10.220;2024-02-16T14:09:37;20.70;;;13.65;;
78824;SDS011;68176;45.554;10.220;2024-02-16T14:12:07;21.17;;;14.10;;
78824;SDS011;68176;45.554;10.220;2024-02-16T14:14:37;20.60;;;12.60;;
78824;SDS011;68176;45.554;10.220;2024-02-16T14:17:07;19.42;;;13.13;;
78824;SDS011;68176;45.554;10.220;2024-02-16T14:19:37;18.50;;;12.77;;
78824;SDS011;68176;45.554;10.220;2024-02-16T14:22:07;20.20;;;13.20;;
78824;SDS011;68176;45.554;10.220;2024-02-16T14:24:37;21.13;;;13.25;;
78824;SDS011;68176;45.554;10.220;2024-02-16T14:29:38;20.58;;;12.50;;
78824;SDS011;68176;45.554;10.220;2024-02-16T14:32:07;20.33;;;12.43;;
78824;SDS011;68176;45.554;10.220;2024-02-16T14:34:37;16.48;;;11.52;;
78824;SDS011;68176;45.554;10.220;2024-02-16T14:37:07;16.25;;;11.18;;
78824;SDS011;68176;45.554;10.220;2024-02-16T14:39:37;17.42;;;11.90;;
78824;SDS011;68176;45.554;10.220;2024-02-16T14:42:07;18.55;;;12.02;;
78824;SDS011;68176;45.554;10.220;2024-02-16T14:44:37;16.63;;;11.60;;
78824;SDS011;68176;45.554;10.220;2024-02-16T14:47:07;17.25;;;11.40;;
78824;SDS011;68176;45.554;10.220;2024-02-16T14:49:37;15.55;;;10.45;;
78824;SDS011;68176;45.554;10.220;2024-02-16T14:52:07;18.67;;;10.93;;
78824;SDS011;68176;45.554;10.220;2024-02-16T14:54:37;32.38;;;19.75;;
78824;SDS011;68176;45.554;10.220;2024-02-16T14:57:07;53.72;;;34.42;;
78824;SDS011;68176;45.554;10.220;2024-02-16T14:59:37;75.68;;;44.95;;
78824;SDS011;68176;45.554;10.220;2024-02-16T15:02:07;67.05;;;41.05;;
78824;SDS011;68176;45.554;10.220;2024-02-16T15:04:37;68.72;;;45.00;;
78824;SDS011;68176;45.554;10.220;2024-02-16T15:07:07;74.28;;;43.67;;
78824;SDS011;68176;45.554;10.220;2024-02-16T15:09:37;65.95;;;38.92;;
78824;SDS011;68176;45.554;10.220;2024-02-16T15:12:07;68.55;;;44.55;;
78824;SDS011;68176;45.554;10.220;2024-02-16T15:17:07;68.43;;;38.28;;
78824;SDS011;68176;45.554;10.220;2024-02-16T15:22:07;72.20;;;39.25;;
78824;SDS011;68176;45.554;10.220;2024-02-16T15:24:37;63.13;;;40.28;;
78824;SDS011;68176;45.554;10.220;2024-02-16T15:29:37;68.05;;;38.80;;
78824;SDS011;68176;45.554;10.220;2024-02-16T15:32:07;80.28;;;40.28;;
78824;SDS011;68176;45.554;10.220;2024-02-16T15:34:37;63.83;;;38.30;;
78824;SDS011;68176;45.554;10.220;2024-02-16T15:37:07;61.45;;;39.40;;
78824;SDS011;68176;45.554;10.220;2024-02-16T15:42:07;68.30;;;39.63;;
78824;SDS011;68176;45.554;10.220;2024-02-16T15:44:37;62.03;;;36.90;;
78824;SDS011;68176;45.554;10.220;2024-02-16T15:49:37;54.60;;;36.38;;
78824;SDS011;68176;45.554;10.220;2024-02-16T15:52:07;56.50;;;34.80;;
78824;SDS011;68176;45.554;10.220;2024-02-16T15:54:37;57.85;;;33.35;;
78824;SDS011;68176;45.554;10.220;2024-02-16T15:57:07;61.58;;;36.35;;
78824;SDS011;68176;45.554;10.220;2024-02-16T15:59:37;55.67;;;33.17;;
78824;SDS011;68176;45.554;10.220;2024-02-16T16:04:37;52.75;;;33.67;;
78824;SDS011;68176;45.554;10.220;2024-02-16T16:09:38;52.08;;;33.95;;
78824;SDS011;68176;45.554;10.220;2024-02-16T16:12:07;55.03;;;32.83;;
78824;SDS011;68176;45.554;10.220;2024-02-16T16:14:37;58.78;;;36.50;;
78824;SDS011;68176;45.554;10.220;2024-02-16T16:19:38;54.45;;;32.45;;
78824;SDS011;68176;45.554;10.220;2024-02-16T16:22:08;55.63;;;36.35;;
78824;SDS011;68176;45.554;10.220;2024-02-16T16:24:38;54.13;;;34.50;;
78824;SDS011;68176;45.554;10.220;2024-02-16T16:27:08;51.45;;;33.38;;
78824;SDS011;68176;45.554;10.220;2024-02-16T16:29:38;56.17;;;33.63;;
78824;SDS011;68176;45.554;10.220;2024-02-16T16:32:07;49.55;;;32.65;;
78824;SDS011;68176;45.554;10.220;2024-02-16T16:34:39;48.30;;;30.50;;